x

Molasses Reef, Fl (mlrf1) Weather Station

2:00pm - Sat 25th Oct 2014 All times are EDT. -4 hours from GMT.

  • Wind
    14mph, 16mph gusts
  • Sea Temp 82°f
  • Air Temp 78°f
  • Sea Pressure 1012.2mb
  • Molasses Reef, Fl
  • Molasses Reef, Fl

More Historic Weather Station data

Upgrade to MSW Pro to gain access to the past 30 days of data for over 8000 Wavebouys and Weather Stations around the globe.

Join Pro

Comparision Forecast

View Surf forecast
   
Sat 10/25 2:00pm 14 16 mph 1012.2mb 82f 78f
1:00pm 17 20 mph 1012.4mb 82f 78f
12:00pm 17 20 mph 1013mb 82f 77f
11:00am 20 21 mph 1013mb 82f 76f
10:00am 21 22 mph 1012.8mb 82f 74f
9:00am 21 22 mph 1012.5mb 81f 73f
8:00am 20 22 mph 1011.8mb 80f 73f
7:00am 22 23 mph 1010.9mb 80f 72f
6:00am 22 24 mph 1010.3mb 80f 72f
5:00am 21 22 mph 1010mb 80f 73f
4:00am 21 22 mph 1009.8mb 81f 73f
3:00am 22 24 mph 1010.1mb 81f 73f
2:00am 21 22 mph 1010.4mb 81f 74f
1:00am 20 21 mph 1010.4mb 82f 75f
12:00am 20 21 mph 1010.3mb 82f 76f
Fri 10/24 11:00pm 20 22 mph 1010.3mb 82f 77f
10:00pm 20 22 mph 1009.9mb 82f 77f
9:00pm 26 29 mph 1009.2mb 82f 78f
8:00pm 28 30 mph 1008.4mb 82f 80f
7:00pm 29 31 mph 1008mb 82f 79f
6:00pm 25 26 mph 1007.7mb 82f 78f
5:00pm 28 30 mph 1007.4mb 82f 75f
4:00pm 21 23 mph 1007.8mb 82f 76f
3:00pm 24 26 mph 1008mb 82f 75f
2:00pm 18
mph
1008.5mb 83f 76f
1:00pm 14 15 mph 1009.3mb 83f 75f
12:00pm 2 3 mph 1010mb 82f 77f
11:00am 9 10 mph 1010.3mb 82f 76f
10:00am 11 13 mph 1010.3mb 82f 74f
9:00am 13 15 mph 1010.1mb 82f 74f
8:00am 16 17 mph 1009.4mb 82f 76f
7:00am 16 18 mph 1009.1mb 82f 77f
6:00am 18 21 mph 1008.6mb 82f 78f
5:00am 18 20 mph 1008.9mb 82f 79f
4:00am 16 18 mph 1009.1mb 83f 79f
3:00am 16 17 mph 1009.5mb 83f 79f
2:00am 23 24 mph 1010.3mb 83f 76f
1:00am 18 20 mph 1011mb 83f 78f
12:00am 20 22 mph 1011.5mb 83f 77f
Thu 10/23 11:00pm 15 16 mph 1012mb 83f 77f
10:00pm 17 20 mph 1011.8mb 83f 78f
9:00pm 11 14 mph 1011.5mb 83f 77f
8:00pm 11 13 mph 1011mb 83f 75f
7:00pm 13 15 mph 1011mb 83f 76f
6:00pm 21
mph
1010.2mb 83f 76f
5:00pm 8 9 mph 1010.5mb 83f 76f
4:00pm 9 10 mph 1010.6mb 83f 77f
3:00pm 10 11 mph 1010.9mb 83f 76f
2:00pm 15 16 mph 1011.5mb 83f 75f
1:00pm 18 22 mph 1012.3mb 83f 75f
12:00pm 21 23 mph 1012.6mb 83f 79f
11:00am 18 20 mph 1012.8mb 83f 78f
10:00am 17
mph
1012.7mb 83f 78f
9:00am 14 16 mph 1012.5mb 83f 78f
8:00am 18 21 mph 1011.6mb 83f 78f
7:00am 18 21 mph 1011.5mb 83f 77f
6:00am 16 17 mph 1011.6mb 83f 77f
5:00am 18 20 mph 1011.4mb 83f 77f
4:00am 14 17 mph 1011.8mb 83f 78f
3:00am 9 11 mph 1012.2mb 83f 78f
2:00am 9 11 mph 1013mb 83f 78f
1:00am 8 9 mph 1013.5mb 83f 78f
12:00am 9 11 mph 1013.4mb 83f 78f
Wed 10/22 11:00pm 9 11 mph 1013.6mb 83f 77f
10:00pm 13 14 mph 1013.6mb 83f 77f
9:00pm 5 6 mph 1014mb 83f 76f
8:00pm 7
mph
1014.2mb 83f 77f
7:00pm  -  mph 1013.4mb 83f 77f
6:00pm 2 3 mph 1012.9mb 83f 76f
5:00pm  -  1 mph 1012.6mb 83f 76f
4:00pm 7 8 mph 1013mb 83f 76f
3:00pm 1
mph
1012.9mb 83f 74f
2:00pm 18 22 mph 1013.2mb 83f 77f
1:00pm 5 6 mph 1014mb 83f 82f
12:00pm 9 11 mph 1014.5mb 83f 81f
11:00am 11
mph
1014.6mb 83f 79f
10:00am 8 9 mph 1014.7mb 83f 79f
9:00am 7 8 mph 1014.4mb 83f 80f
8:00am 7
mph
1013.8mb 83f 79f
7:00am 2
mph
1013.4mb 83f 81f
6:00am 2 5 mph 1012.8mb 83f 81f
5:00am 7 9 mph 1012.6mb 82f 81f
4:00am 8 9 mph 1012.4mb 82f 80f
3:00am 8 9 mph 1012.5mb 83f 80f
2:00am 7 8 mph 1013.2mb 83f 80f
1:00am 7 9 mph 1013.6mb 83f 80f
12:00am 6 7 mph 1014.3mb 83f 80f
Tue 10/21 11:00pm 8 9 mph 1014.9mb 83f 79f
10:00pm 11
mph
1014.8mb 83f 78f
9:00pm 9 11 mph 1014.4mb 83f 78f
8:00pm 6 7 mph 1013.7mb 83f 78f